sensor_id;sensor_type;location;lat;lon;timestamp;P1;durP1;ratioP1;P2;durP2;ratioP2
21505;SDS011;10914;48.886;9.394;2023-01-01T00:01:51;56.92;;;51.15;;
21505;SDS011;10914;48.886;9.394;2023-01-01T00:04:16;50.53;;;45.73;;
21505;SDS011;10914;48.886;9.394;2023-01-01T00:06:41;52.85;;;47.90;;
21505;SDS011;10914;48.886;9.394;2023-01-01T00:09:07;48.78;;;44.08;;
21505;SDS011;10914;48.886;9.394;2023-01-01T00:11:51;49.08;;;44.65;;
21505;SDS011;10914;48.886;9.394;2023-01-01T00:14:17;48.30;;;43.92;;
21505;SDS011;10914;48.886;9.394;2023-01-01T00:16:42;48.25;;;43.80;;
21505;SDS011;10914;48.886;9.394;2023-01-01T00:19:08;49.30;;;44.85;;
21505;SDS011;10914;48.886;9.394;2023-01-01T00:21:33;47.75;;;43.42;;
21505;SDS011;10914;48.886;9.394;2023-01-01T00:23:58;45.87;;;41.73;;
21505;SDS011;10914;48.886;9.394;2023-01-01T00:26:23;46.63;;;42.30;;
21505;SDS011;10914;48.886;9.394;2023-01-01T00:28:48;44.57;;;40.40;;
21505;SDS011;10914;48.886;9.394;2023-01-01T00:31:15;43.90;;;39.87;;
21505;SDS011;10914;48.886;9.394;2023-01-01T00:33:44;43.53;;;39.72;;
21505;SDS011;10914;48.886;9.394;2023-01-01T00:36:10;44.33;;;40.25;;
21505;SDS011;10914;48.886;9.394;2023-01-01T00:38:35;43.00;;;39.17;;
21505;SDS011;10914;48.886;9.394;2023-01-01T00:41:01;43.60;;;39.90;;
21505;SDS011;10914;48.886;9.394;2023-01-01T00:43:27;41.65;;;38.00;;
21505;SDS011;10914;48.886;9.394;2023-01-01T00:45:52;41.88;;;38.17;;
21505;SDS011;10914;48.886;9.394;2023-01-01T00:48:17;40.95;;;37.38;;
21505;SDS011;10914;48.886;9.394;2023-01-01T00:50:44;42.00;;;38.40;;
21505;SDS011;10914;48.886;9.394;2023-01-01T00:53:09;40.28;;;36.78;;
21505;SDS011;10914;48.886;9.394;2023-01-01T00:55:34;41.67;;;38.08;;
21505;SDS011;10914;48.886;9.394;2023-01-01T00:58:00;39.85;;;36.40;;
21505;SDS011;10914;48.886;9.394;2023-01-01T01:00:25;39.47;;;36.10;;
21505;SDS011;10914;48.886;9.394;2023-01-01T01:02:50;39.27;;;35.83;;
21505;SDS011;10914;48.886;9.394;2023-01-01T01:05:15;37.10;;;34.03;;
21505;SDS011;10914;48.886;9.394;2023-01-01T01:07:41;36.38;;;33.33;;
21505;SDS011;10914;48.886;9.394;2023-01-01T01:10:06;35.13;;;32.33;;
21505;SDS011;10914;48.886;9.394;2023-01-01T01:12:33;34.60;;;31.88;;
21505;SDS011;10914;48.886;9.394;2023-01-01T01:14:59;34.65;;;31.95;;
21505;SDS011;10914;48.886;9.394;2023-01-01T01:17:24;35.92;;;33.20;;
21505;SDS011;10914;48.886;9.394;2023-01-01T01:19:50;34.67;;;32.17;;
21505;SDS011;10914;48.886;9.394;2023-01-01T01:22:15;34.50;;;31.90;;
21505;SDS011;10914;48.886;9.394;2023-01-01T01:24:40;34.35;;;31.88;;
21505;SDS011;10914;48.886;9.394;2023-01-01T01:27:05;34.45;;;31.70;;
21505;SDS011;10914;48.886;9.394;2023-01-01T01:29:31;32.47;;;29.97;;
21505;SDS011;10914;48.886;9.394;2023-01-01T01:31:56;34.45;;;31.65;;
21505;SDS011;10914;48.886;9.394;2023-01-01T01:34:21;33.40;;;30.98;;
21505;SDS011;10914;48.886;9.394;2023-01-01T01:36:47;35.00;;;32.40;;
21505;SDS011;10914;48.886;9.394;2023-01-01T01:39:13;34.00;;;31.42;;
21505;SDS011;10914;48.886;9.394;2023-01-01T01:41:39;34.40;;;31.70;;
21505;SDS011;10914;48.886;9.394;2023-01-01T01:46:48;35.22;;;32.47;;
21505;SDS011;10914;48.886;9.394;2023-01-01T01:49:14;34.58;;;31.92;;
21505;SDS011;10914;48.886;9.394;2023-01-01T01:51:40;34.80;;;32.00;;
21505;SDS011;10914;48.886;9.394;2023-01-01T01:54:07;34.60;;;31.90;;
21505;SDS011;10914;48.886;9.394;2023-01-01T01:56:38;34.38;;;31.67;;
21505;SDS011;10914;48.886;9.394;2023-01-01T01:59:04;34.47;;;31.67;;
21505;SDS011;10914;48.886;9.394;2023-01-01T02:01:30;34.35;;;31.50;;
21505;SDS011;10914;48.886;9.394;2023-01-01T02:03:58;35.80;;;32.75;;
21505;SDS011;10914;48.886;9.394;2023-01-01T02:06:27;35.35;;;32.55;;
21505;SDS011;10914;48.886;9.394;2023-01-01T02:08:54;36.55;;;33.58;;
21505;SDS011;10914;48.886;9.394;2023-01-01T02:11:20;36.65;;;33.85;;
21505;SDS011;10914;48.886;9.394;2023-01-01T02:13:46;36.88;;;33.90;;
21505;SDS011;10914;48.886;9.394;2023-01-01T02:21:30;36.60;;;33.70;;
21505;SDS011;10914;48.886;9.394;2023-01-01T02:24:11;36.10;;;33.20;;
21505;SDS011;10914;48.886;9.394;2023-01-01T02:26:53;35.50;;;32.65;;
21505;SDS011;10914;48.886;9.394;2023-01-01T02:31:50;33.97;;;31.38;;
21505;SDS011;10914;48.886;9.394;2023-01-01T02:34:16;34.17;;;31.58;;
21505;SDS011;10914;48.886;9.394;2023-01-01T02:36:45;33.78;;;31.30;;
21505;SDS011;10914;48.886;9.394;2023-01-01T02:39:12;35.28;;;32.55;;
21505;SDS011;10914;48.886;9.394;2023-01-01T02:41:39;37.05;;;34.13;;
21505;SDS011;10914;48.886;9.394;2023-01-01T02:44:05;36.00;;;33.20;;
21505;SDS011;10914;48.886;9.394;2023-01-01T02:46:31;36.17;;;33.17;;
21505;SDS011;10914;48.886;9.394;2023-01-01T02:48:57;35.63;;;32.88;;
21505;SDS011;10914;48.886;9.394;2023-01-01T02:51:47;41.53;;;38.50;;
21505;SDS011;10914;48.886;9.394;2023-01-01T02:56:50;36.70;;;33.88;;
21505;SDS011;10914;48.886;9.394;2023-01-01T02:59:20;35.40;;;32.45;;
21505;SDS011;10914;48.886;9.394;2023-01-01T03:05:04;35.67;;;32.85;;
21505;SDS011;10914;48.886;9.394;2023-01-01T03:07:46;36.47;;;33.80;;
21505;SDS011;10914;48.886;9.394;2023-01-01T03:10:19;37.05;;;34.17;;
21505;SDS011;10914;48.886;9.394;2023-01-01T03:12:57;37.88;;;35.15;;
21505;SDS011;10914;48.886;9.394;2023-01-01T03:15:29;36.20;;;33.63;;
21505;SDS011;10914;48.886;9.394;2023-01-01T03:20:27;29.98;;;28.02;;
21505;SDS011;10914;48.886;9.394;2023-01-01T03:22:53;30.52;;;28.33;;
21505;SDS011;10914;48.886;9.394;2023-01-01T03:25:24;30.73;;;28.55;;
21505;SDS011;10914;48.886;9.394;2023-01-01T03:27:53;31.42;;;29.02;;
21505;SDS011;10914;48.886;9.394;2023-01-01T03:30:21;30.50;;;28.20;;
21505;SDS011;10914;48.886;9.394;2023-01-01T03:35:25;34.38;;;31.58;;
21505;SDS011;10914;48.886;9.394;2023-01-01T03:37:52;32.42;;;30.02;;
21505;SDS011;10914;48.886;9.394;2023-01-01T03:40:19;31.08;;;28.88;;
21505;SDS011;10914;48.886;9.394;2023-01-01T03:42:48;29.75;;;27.50;;
21505;SDS011;10914;48.886;9.394;2023-01-01T03:45:17;29.55;;;27.45;;
21505;SDS011;10914;48.886;9.394;2023-01-01T03:47:43;31.08;;;28.70;;
21505;SDS011;10914;48.886;9.394;2023-01-01T03:50:09;30.25;;;28.08;;
21505;SDS011;10914;48.886;9.394;2023-01-01T04:02:16;32.03;;;29.73;;
21505;SDS011;10914;48.886;9.394;2023-01-01T04:04:43;33.38;;;30.90;;
21505;SDS011;10914;48.886;9.394;2023-01-01T04:07:08;34.35;;;31.85;;
21505;SDS011;10914;48.886;9.394;2023-01-01T04:09:34;35.80;;;33.47;;
21505;SDS011;10914;48.886;9.394;2023-01-01T04:12:01;37.58;;;34.88;;
21505;SDS011;10914;48.886;9.394;2023-01-01T04:14:32;37.63;;;35.03;;
21505;SDS011;10914;48.886;9.394;2023-01-01T04:16:58;36.15;;;33.83;;
21505;SDS011;10914;48.886;9.394;2023-01-01T04:19:23;36.60;;;34.30;;
21505;SDS011;10914;48.886;9.394;2023-01-01T04:21:49;35.40;;;32.97;;
21505;SDS011;10914;48.886;9.394;2023-01-01T04:24:14;35.00;;;32.77;;
21505;SDS011;10914;48.886;9.394;2023-01-01T04:26:39;31.00;;;28.95;;
21505;SDS011;10914;48.886;9.394;2023-01-01T04:29:05;28.50;;;26.60;;
21505;SDS011;10914;48.886;9.394;2023-01-01T04:31:30;27.75;;;25.85;;
21505;SDS011;10914;48.886;9.394;2023-01-01T04:33:55;26.80;;;25.20;;
21505;SDS011;10914;48.886;9.394;2023-01-01T04:36:20;26.80;;;25.13;;
21505;SDS011;10914;48.886;9.394;2023-01-01T04:38:45;25.93;;;24.23;;
21505;SDS011;10914;48.886;9.394;2023-01-01T04:41:11;26.95;;;25.23;;
21505;SDS011;10914;48.886;9.394;2023-01-01T04:43:36;28.25;;;26.25;;
21505;SDS011;10914;48.886;9.394;2023-01-01T04:46:02;30.25;;;28.40;;
21505;SDS011;10914;48.886;9.394;2023-01-01T04:48:28;30.90;;;29.10;;
21505;SDS011;10914;48.886;9.394;2023-01-01T04:51:00;28.40;;;26.60;;
21505;SDS011;10914;48.886;9.394;2023-01-01T04:53:27;30.70;;;28.77;;
21505;SDS011;10914;48.886;9.394;2023-01-01T04:55:53;30.65;;;28.85;;
21505;SDS011;10914;48.886;9.394;2023-01-01T04:58:18;30.07;;;28.23;;
21505;SDS011;10914;48.886;9.394;2023-01-01T05:00:47;25.90;;;24.30;;
21505;SDS011;10914;48.886;9.394;2023-01-01T05:03:12;26.67;;;24.98;;
21505;SDS011;10914;48.886;9.394;2023-01-01T05:05:37;27.23;;;25.63;;
21505;SDS011;10914;48.886;9.394;2023-01-01T05:08:02;27.48;;;25.88;;
21505;SDS011;10914;48.886;9.394;2023-01-01T05:10:28;26.30;;;24.75;;
21505;SDS011;10914;48.886;9.394;2023-01-01T05:12:53;25.30;;;23.70;;
21505;SDS011;10914;48.886;9.394;2023-01-01T05:15:18;24.85;;;23.40;;
21505;SDS011;10914;48.886;9.394;2023-01-01T05:17:44;24.60;;;23.20;;
21505;SDS011;10914;48.886;9.394;2023-01-01T05:20:09;24.52;;;23.08;;
21505;SDS011;10914;48.886;9.394;2023-01-01T05:22:34;25.77;;;24.23;;
21505;SDS011;10914;48.886;9.394;2023-01-01T05:25:00;25.10;;;23.43;;
21505;SDS011;10914;48.886;9.394;2023-01-01T05:27:25;25.33;;;23.73;;
21505;SDS011;10914;48.886;9.394;2023-01-01T05:29:50;25.90;;;24.20;;
21505;SDS011;10914;48.886;9.394;2023-01-01T05:32:15;25.10;;;23.60;;
21505;SDS011;10914;48.886;9.394;2023-01-01T05:34:40;25.20;;;23.70;;
21505;SDS011;10914;48.886;9.394;2023-01-01T05:37:06;25.95;;;24.40;;
21505;SDS011;10914;48.886;9.394;2023-01-01T05:39:31;26.88;;;25.27;;
21505;SDS011;10914;48.886;9.394;2023-01-01T05:41:56;30.63;;;28.73;;
21505;SDS011;10914;48.886;9.394;2023-01-01T05:44:21;29.30;;;27.60;;
21505;SDS011;10914;48.886;9.394;2023-01-01T05:46:47;28.80;;;27.08;;
21505;SDS011;10914;48.886;9.394;2023-01-01T05:49:12;29.27;;;27.42;;
21505;SDS011;10914;48.886;9.394;2023-01-01T05:51:37;30.95;;;29.05;;
21505;SDS011;10914;48.886;9.394;2023-01-01T05:54:02;31.20;;;29.33;;
21505;SDS011;10914;48.886;9.394;2023-01-01T05:56:28;29.75;;;28.13;;
21505;SDS011;10914;48.886;9.394;2023-01-01T05:58:54;28.42;;;26.83;;
21505;SDS011;10914;48.886;9.394;2023-01-01T06:01:22;26.08;;;24.35;;
21505;SDS011;10914;48.886;9.394;2023-01-01T06:03:48;25.40;;;23.80;;
21505;SDS011;10914;48.886;9.394;2023-01-01T06:06:14;24.55;;;22.95;;
21505;SDS011;10914;48.886;9.394;2023-01-01T06:08:40;25.20;;;23.73;;
21505;SDS011;10914;48.886;9.394;2023-01-01T06:11:06;25.73;;;24.08;;
21505;SDS011;10914;48.886;9.394;2023-01-01T06:13:31;24.63;;;23.13;;
21505;SDS011;10914;48.886;9.394;2023-01-01T06:15:57;25.00;;;23.33;;
21505;SDS011;10914;48.886;9.394;2023-01-01T06:18:23;25.85;;;24.25;;
21505;SDS011;10914;48.886;9.394;2023-01-01T06:20:49;24.77;;;23.38;;
21505;SDS011;10914;48.886;9.394;2023-01-01T06:23:14;25.13;;;23.67;;
21505;SDS011;10914;48.886;9.394;2023-01-01T06:25:39;25.05;;;23.45;;
21505;SDS011;10914;48.886;9.394;2023-01-01T06:28:05;25.48;;;23.90;;
21505;SDS011;10914;48.886;9.394;2023-01-01T06:30:30;24.20;;;22.80;;
21505;SDS011;10914;48.886;9.394;2023-01-01T06:32:58;24.77;;;23.27;;
21505;SDS011;10914;48.886;9.394;2023-01-01T06:35:23;25.40;;;23.60;;
21505;SDS011;10914;48.886;9.394;2023-01-01T06:37:48;25.45;;;23.95;;
21505;SDS011;10914;48.886;9.394;2023-01-01T06:40:13;25.17;;;23.67;;
21505;SDS011;10914;48.886;9.394;2023-01-01T06:42:39;25.60;;;24.02;;
21505;SDS011;10914;48.886;9.394;2023-01-01T06:45:04;25.85;;;24.23;;
21505;SDS011;10914;48.886;9.394;2023-01-01T06:47:34;24.50;;;23.10;;
21505;SDS011;10914;48.886;9.394;2023-01-01T06:49:59;24.42;;;23.05;;
21505;SDS011;10914;48.886;9.394;2023-01-01T06:52:24;25.13;;;23.48;;
21505;SDS011;10914;48.886;9.394;2023-01-01T06:54:50;24.73;;;23.33;;
21505;SDS011;10914;48.886;9.394;2023-01-01T06:57:15;26.10;;;24.50;;
21505;SDS011;10914;48.886;9.394;2023-01-01T06:59:40;25.13;;;23.63;;
21505;SDS011;10914;48.886;9.394;2023-01-01T07:02:07;25.58;;;23.95;;
21505;SDS011;10914;48.886;9.394;2023-01-01T07:04:33;26.30;;;24.70;;
21505;SDS011;10914;48.886;9.394;2023-01-01T07:06:58;25.35;;;23.75;;
21505;SDS011;10914;48.886;9.394;2023-01-01T07:09:25;24.90;;;23.30;;
21505;SDS011;10914;48.886;9.394;2023-01-01T07:11:50;25.70;;;24.10;;
21505;SDS011;10914;48.886;9.394;2023-01-01T07:14:15;25.92;;;24.33;;
21505;SDS011;10914;48.886;9.394;2023-01-01T07:16:40;25.55;;;23.95;;
21505;SDS011;10914;48.886;9.394;2023-01-01T07:19:05;25.70;;;24.13;;
21505;SDS011;10914;48.886;9.394;2023-01-01T07:23:59;25.13;;;23.53;;
21505;SDS011;10914;48.886;9.394;2023-01-01T07:26:25;25.20;;;23.55;;
21505;SDS011;10914;48.886;9.394;2023-01-01T07:28:51;24.85;;;23.27;;
21505;SDS011;10914;48.886;9.394;2023-01-01T07:31:16;25.13;;;23.55;;
21505;SDS011;10914;48.886;9.394;2023-01-01T07:33:42;24.77;;;23.20;;
21505;SDS011;10914;48.886;9.394;2023-01-01T07:36:07;26.55;;;24.88;;
21505;SDS011;10914;48.886;9.394;2023-01-01T07:38:32;26.45;;;24.67;;
21505;SDS011;10914;48.886;9.394;2023-01-01T07:40:58;25.40;;;24.00;;
21505;SDS011;10914;48.886;9.394;2023-01-01T07:43:23;24.27;;;22.90;;
21505;SDS011;10914;48.886;9.394;2023-01-01T07:45:48;24.80;;;23.30;;
21505;SDS011;10914;48.886;9.394;2023-01-01T07:48:14;24.20;;;22.80;;
21505;SDS011;10914;48.886;9.394;2023-01-01T07:50:40;24.60;;;23.02;;
21505;SDS011;10914;48.886;9.394;2023-01-01T07:53:05;25.38;;;23.83;;
21505;SDS011;10914;48.886;9.394;2023-01-01T07:55:31;24.17;;;22.73;;
21505;SDS011;10914;48.886;9.394;2023-01-01T07:57:56;25.23;;;23.73;;
21505;SDS011;10914;48.886;9.394;2023-01-01T08:00:21;24.30;;;22.88;;
21505;SDS011;10914;48.886;9.394;2023-01-01T08:02:47;24.58;;;23.17;;
21505;SDS011;10914;48.886;9.394;2023-01-01T08:05:12;23.73;;;22.23;;
21505;SDS011;10914;48.886;9.394;2023-01-01T08:07:37;24.05;;;22.58;;
21505;SDS011;10914;48.886;9.394;2023-01-01T08:10:03;24.20;;;22.65;;
21505;SDS011;10914;48.886;9.394;2023-01-01T08:12:29;24.30;;;22.73;;
21505;SDS011;10914;48.886;9.394;2023-01-01T08:14:54;23.75;;;22.25;;
21505;SDS011;10914;48.886;9.394;2023-01-01T08:17:19;24.23;;;22.83;;
21505;SDS011;10914;48.886;9.394;2023-01-01T08:19:44;23.80;;;22.20;;
21505;SDS011;10914;48.886;9.394;2023-01-01T08:22:10;24.58;;;22.95;;
21505;SDS011;10914;48.886;9.394;2023-01-01T08:24:36;24.00;;;22.27;;
21505;SDS011;10914;48.886;9.394;2023-01-01T08:27:01;23.88;;;22.40;;
21505;SDS011;10914;48.886;9.394;2023-01-01T08:29:26;24.00;;;22.60;;
21505;SDS011;10914;48.886;9.394;2023-01-01T08:31:52;23.38;;;22.08;;
21505;SDS011;10914;48.886;9.394;2023-01-01T08:34:17;24.23;;;22.88;;
21505;SDS011;10914;48.886;9.394;2023-01-01T08:36:42;24.95;;;23.25;;
21505;SDS011;10914;48.886;9.394;2023-01-01T08:39:07;24.35;;;22.75;;
21505;SDS011;10914;48.886;9.394;2023-01-01T08:41:33;24.23;;;22.77;;
21505;SDS011;10914;48.886;9.394;2023-01-01T08:43:58;24.00;;;22.50;;
21505;SDS011;10914;48.886;9.394;2023-01-01T08:46:24;23.83;;;22.33;;
21505;SDS011;10914;48.886;9.394;2023-01-01T08:48:49;24.67;;;22.92;;
21505;SDS011;10914;48.886;9.394;2023-01-01T08:51:15;24.30;;;22.80;;
21505;SDS011;10914;48.886;9.394;2023-01-01T08:53:40;24.08;;;22.77;;
21505;SDS011;10914;48.886;9.394;2023-01-01T08:56:06;24.20;;;22.80;;
21505;SDS011;10914;48.886;9.394;2023-01-01T08:58:33;25.08;;;23.23;;
21505;SDS011;10914;48.886;9.394;2023-01-01T09:00:59;24.02;;;22.35;;
21505;SDS011;10914;48.886;9.394;2023-01-01T09:03:24;23.70;;;21.98;;
21505;SDS011;10914;48.886;9.394;2023-01-01T09:05:50;23.75;;;22.35;;
21505;SDS011;10914;48.886;9.394;2023-01-01T09:08:15;23.70;;;22.33;;
21505;SDS011;10914;48.886;9.394;2023-01-01T09:10:40;25.33;;;23.83;;
21505;SDS011;10914;48.886;9.394;2023-01-01T09:13:08;29.00;;;27.35;;
21505;SDS011;10914;48.886;9.394;2023-01-01T09:15:33;25.92;;;24.52;;
21505;SDS011;10914;48.886;9.394;2023-01-01T09:17:58;27.00;;;25.48;;
21505;SDS011;10914;48.886;9.394;2023-01-01T09:20:24;26.45;;;24.63;;
21505;SDS011;10914;48.886;9.394;2023-01-01T09:22:49;27.45;;;25.92;;
21505;SDS011;10914;48.886;9.394;2023-01-01T09:25:14;27.25;;;25.55;;
21505;SDS011;10914;48.886;9.394;2023-01-01T09:27:40;26.58;;;25.08;;
21505;SDS011;10914;48.886;9.394;2023-01-01T09:30:05;26.55;;;25.15;;
21505;SDS011;10914;48.886;9.394;2023-01-01T09:32:31;24.92;;;23.55;;
21505;SDS011;10914;48.886;9.394;2023-01-01T09:34:56;25.25;;;23.88;;
21505;SDS011;10914;48.886;9.394;2023-01-01T09:37:21;25.83;;;24.33;;
21505;SDS011;10914;48.886;9.394;2023-01-01T09:39:47;25.15;;;23.65;;
21505;SDS011;10914;48.886;9.394;2023-01-01T09:47:12;23.47;;;22.07;;
21505;SDS011;10914;48.886;9.394;2023-01-01T09:49:41;23.63;;;21.83;;
21505;SDS011;10914;48.886;9.394;2023-01-01T09:52:08;22.75;;;21.42;;
21505;SDS011;10914;48.886;9.394;2023-01-01T09:54:49;22.40;;;20.90;;
21505;SDS011;10914;48.886;9.394;2023-01-01T09:57:17;23.40;;;22.10;;
21505;SDS011;10914;48.886;9.394;2023-01-01T09:59:42;23.30;;;21.83;;
21505;SDS011;10914;48.886;9.394;2023-01-01T10:02:17;22.90;;;21.60;;
21505;SDS011;10914;48.886;9.394;2023-01-01T10:04:55;23.63;;;21.92;;
21505;SDS011;10914;48.886;9.394;2023-01-01T10:13:00;22.65;;;21.10;;
21505;SDS011;10914;48.886;9.394;2023-01-01T10:15:30;22.98;;;21.67;;
21505;SDS011;10914;48.886;9.394;2023-01-01T10:17:57;22.40;;;21.10;;
21505;SDS011;10914;48.886;9.394;2023-01-01T10:20:27;23.25;;;21.55;;
21505;SDS011;10914;48.886;9.394;2023-01-01T10:22:58;21.75;;;20.52;;
21505;SDS011;10914;48.886;9.394;2023-01-01T10:25:25;21.00;;;19.67;;
21505;SDS011;10914;48.886;9.394;2023-01-01T10:28:13;22.30;;;20.90;;
21505;SDS011;10914;48.886;9.394;2023-01-01T10:30:38;22.73;;;21.35;;
21505;SDS011;10914;48.886;9.394;2023-01-01T10:33:04;22.65;;;21.35;;
21505;SDS011;10914;48.886;9.394;2023-01-01T10:35:33;22.63;;;21.05;;
21505;SDS011;10914;48.886;9.394;2023-01-01T10:37:59;22.00;;;20.60;;
21505;SDS011;10914;48.886;9.394;2023-01-01T10:40:26;21.75;;;20.35;;
21505;SDS011;10914;48.886;9.394;2023-01-01T10:42:52;21.67;;;20.27;;
21505;SDS011;10914;48.886;9.394;2023-01-01T10:45:22;20.80;;;19.50;;
21505;SDS011;10914;48.886;9.394;2023-01-01T10:51:17;20.88;;;19.52;;
21505;SDS011;10914;48.886;9.394;2023-01-01T10:55:50;20.85;;;19.38;;
21505;SDS011;10914;48.886;9.394;2023-01-01T10:58:25;20.52;;;19.13;;
21505;SDS011;10914;48.886;9.394;2023-01-01T11:00:58;20.83;;;19.35;;
21505;SDS011;10914;48.886;9.394;2023-01-01T11:03:24;20.63;;;19.52;;
21505;SDS011;10914;48.886;9.394;2023-01-01T11:06:32;20.63;;;19.33;;
21505;SDS011;10914;48.886;9.394;2023-01-01T11:08:39;20.92;;;19.67;;
21505;SDS011;10914;48.886;9.394;2023-01-01T11:11:05;20.25;;;19.05;;
21505;SDS011;10914;48.886;9.394;2023-01-01T11:13:31;19.98;;;18.88;;
21505;SDS011;10914;48.886;9.394;2023-01-01T11:15:57;20.92;;;19.65;;
21505;SDS011;10914;48.886;9.394;2023-01-01T11:18:30;21.33;;;20.05;;
21505;SDS011;10914;48.886;9.394;2023-01-01T11:21:00;21.70;;;20.40;;
21505;SDS011;10914;48.886;9.394;2023-01-01T11:25:58;21.90;;;20.40;;
21505;SDS011;10914;48.886;9.394;2023-01-01T11:28:24;20.83;;;19.52;;
21505;SDS011;10914;48.886;9.394;2023-01-01T11:31:04;19.73;;;18.50;;
21505;SDS011;10914;48.886;9.394;2023-01-01T11:33:30;20.42;;;19.20;;
21505;SDS011;10914;48.886;9.394;2023-01-01T11:35:56;20.80;;;19.05;;
21505;SDS011;10914;48.886;9.394;2023-01-01T11:38:22;20.00;;;18.60;;
21505;SDS011;10914;48.886;9.394;2023-01-01T11:40:50;21.50;;;20.08;;
21505;SDS011;10914;48.886;9.394;2023-01-01T11:43:22;20.27;;;18.98;;
21505;SDS011;10914;48.886;9.394;2023-01-01T11:45:48;20.63;;;19.25;;
21505;SDS011;10914;48.886;9.394;2023-01-01T11:48:17;20.67;;;19.25;;
21505;SDS011;10914;48.886;9.394;2023-01-01T11:50:50;20.35;;;18.90;;
21505;SDS011;10914;48.886;9.394;2023-01-01T11:53:18;20.27;;;18.83;;
21505;SDS011;10914;48.886;9.394;2023-01-01T11:55:49;21.35;;;20.00;;
21505;SDS011;10914;48.886;9.394;2023-01-01T11:58:20;20.25;;;18.98;;
21505;SDS011;10914;48.886;9.394;2023-01-01T12:00:47;20.23;;;18.85;;
21505;SDS011;10914;48.886;9.394;2023-01-01T12:05:53;21.48;;;20.25;;
21505;SDS011;10914;48.886;9.394;2023-01-01T12:08:24;21.02;;;19.83;;
21505;SDS011;10914;48.886;9.394;2023-01-01T12:10:53;21.55;;;20.27;;
21505;SDS011;10914;48.886;9.394;2023-01-01T12:13:21;21.05;;;19.77;;
21505;SDS011;10914;48.886;9.394;2023-01-01T12:19:19;19.95;;;18.83;;
21505;SDS011;10914;48.886;9.394;2023-01-01T12:23:43;20.23;;;19.02;;
21505;SDS011;10914;48.886;9.394;2023-01-01T12:31:06;19.38;;;18.17;;
21505;SDS011;10914;48.886;9.394;2023-01-01T12:33:43;19.20;;;18.10;;
21505;SDS011;10914;48.886;9.394;2023-01-01T12:49:17;20.33;;;18.98;;
21505;SDS011;10914;48.886;9.394;2023-01-01T12:52:00;21.00;;;19.50;;
21505;SDS011;10914;48.886;9.394;2023-01-01T12:54:34;22.00;;;20.60;;
21505;SDS011;10914;48.886;9.394;2023-01-01T12:59:38;20.00;;;18.80;;
21505;SDS011;10914;48.886;9.394;2023-01-01T13:02:13;21.35;;;19.95;;
21505;SDS011;10914;48.886;9.394;2023-01-01T13:04:40;22.45;;;20.73;;
21505;SDS011;10914;48.886;9.394;2023-01-01T13:07:07;20.63;;;19.35;;
21505;SDS011;10914;48.886;9.394;2023-01-01T13:09:40;20.48;;;19.08;;
21505;SDS011;10914;48.886;9.394;2023-01-01T13:12:15;20.48;;;19.17;;
21505;SDS011;10914;48.886;9.394;2023-01-01T13:14:42;20.35;;;19.00;;
21505;SDS011;10914;48.886;9.394;2023-01-01T13:17:17;21.08;;;19.55;;
21505;SDS011;10914;48.886;9.394;2023-01-01T13:19:44;20.98;;;19.77;;
21505;SDS011;10914;48.886;9.394;2023-01-01T13:25:04;21.10;;;19.67;;
21505;SDS011;10914;48.886;9.394;2023-01-01T13:30:59;21.30;;;19.80;;
21505;SDS011;10914;48.886;9.394;2023-01-01T13:38:43;20.77;;;19.48;;
21505;SDS011;10914;48.886;9.394;2023-01-01T13:43:49;21.83;;;20.42;;
21505;SDS011;10914;48.886;9.394;2023-01-01T13:46:14;21.33;;;20.13;;
21505;SDS011;10914;48.886;9.394;2023-01-01T14:01:54;23.10;;;21.67;;
21505;SDS011;10914;48.886;9.394;2023-01-01T14:04:30;23.40;;;22.00;;
21505;SDS011;10914;48.886;9.394;2023-01-01T14:06:59;22.70;;;21.08;;
21505;SDS011;10914;48.886;9.394;2023-01-01T14:09:27;22.75;;;21.35;;
21505;SDS011;10914;48.886;9.394;2023-01-01T14:11:52;24.17;;;22.50;;
21505;SDS011;10914;48.886;9.394;2023-01-01T14:16:52;23.17;;;21.45;;
21505;SDS011;10914;48.886;9.394;2023-01-01T14:19:18;22.23;;;20.73;;
21505;SDS011;10914;48.886;9.394;2023-01-01T14:21:43;22.88;;;21.25;;
21505;SDS011;10914;48.886;9.394;2023-01-01T14:24:09;22.73;;;21.27;;
21505;SDS011;10914;48.886;9.394;2023-01-01T14:26:37;23.58;;;21.88;;
21505;SDS011;10914;48.886;9.394;2023-01-01T14:29:06;23.77;;;22.23;;
21505;SDS011;10914;48.886;9.394;2023-01-01T14:31:44;24.85;;;22.95;;
21505;SDS011;10914;48.886;9.394;2023-01-01T14:34:29;23.60;;;22.05;;
21505;SDS011;10914;48.886;9.394;2023-01-01T14:36:57;24.17;;;22.60;;
21505;SDS011;10914;48.886;9.394;2023-01-01T14:39:24;23.58;;;22.00;;
21505;SDS011;10914;48.886;9.394;2023-01-01T14:41:50;23.38;;;21.80;;
21505;SDS011;10914;48.886;9.394;2023-01-01T14:44:16;22.95;;;21.45;;
21505;SDS011;10914;48.886;9.394;2023-01-01T14:46:46;23.95;;;22.15;;
21505;SDS011;10914;48.886;9.394;2023-01-01T14:49:16;23.08;;;21.65;;
21505;SDS011;10914;48.886;9.394;2023-01-01T14:51:43;23.02;;;21.52;;
21505;SDS011;10914;48.886;9.394;2023-01-01T14:54:13;23.85;;;22.20;;
21505;SDS011;10914;48.886;9.394;2023-01-01T14:56:40;24.33;;;22.30;;
21505;SDS011;10914;48.886;9.394;2023-01-01T14:59:09;25.27;;;23.45;;
21505;SDS011;10914;48.886;9.394;2023-01-01T15:01:36;26.40;;;24.52;;
21505;SDS011;10914;48.886;9.394;2023-01-01T15:04:02;25.80;;;24.10;;
21505;SDS011;10914;48.886;9.394;2023-01-01T15:06:28;23.80;;;22.10;;
21505;SDS011;10914;48.886;9.394;2023-01-01T15:08:54;24.08;;;22.45;;
21505;SDS011;10914;48.886;9.394;2023-01-01T15:11:20;23.50;;;21.90;;
21505;SDS011;10914;48.886;9.394;2023-01-01T15:13:55;24.50;;;22.70;;
21505;SDS011;10914;48.886;9.394;2023-01-01T15:16:21;24.15;;;22.45;;
21505;SDS011;10914;48.886;9.394;2023-01-01T15:18:47;30.52;;;28.63;;
21505;SDS011;10914;48.886;9.394;2023-01-01T15:26:27;27.75;;;25.77;;
21505;SDS011;10914;48.886;9.394;2023-01-01T15:28:53;38.72;;;35.90;;
21505;SDS011;10914;48.886;9.394;2023-01-01T15:31:19;41.63;;;38.33;;
21505;SDS011;10914;48.886;9.394;2023-01-01T15:33:45;34.22;;;31.77;;
21505;SDS011;10914;48.886;9.394;2023-01-01T15:36:11;30.80;;;28.70;;
21505;SDS011;10914;48.886;9.394;2023-01-01T15:38:36;28.17;;;26.10;;
21505;SDS011;10914;48.886;9.394;2023-01-01T15:41:21;26.85;;;24.90;;
21505;SDS011;10914;48.886;9.394;2023-01-01T15:43:47;25.55;;;23.75;;
21505;SDS011;10914;48.886;9.394;2023-01-01T15:46:19;25.33;;;23.73;;
21505;SDS011;10914;48.886;9.394;2023-01-01T15:48:46;25.70;;;24.05;;
21505;SDS011;10914;48.886;9.394;2023-01-01T15:53:59;27.25;;;24.95;;
21505;SDS011;10914;48.886;9.394;2023-01-01T15:56:24;27.90;;;25.75;;
21505;SDS011;10914;48.886;9.394;2023-01-01T15:59:00;28.35;;;26.13;;
21505;SDS011;10914;48.886;9.394;2023-01-01T16:01:30;26.98;;;25.15;;
21505;SDS011;10914;48.886;9.394;2023-01-01T16:03:59;27.85;;;25.60;;
21505;SDS011;10914;48.886;9.394;2023-01-01T16:06:25;28.42;;;26.23;;
21505;SDS011;10914;48.886;9.394;2023-01-01T16:08:50;27.67;;;25.60;;
21505;SDS011;10914;48.886;9.394;2023-01-01T16:11:15;27.77;;;25.75;;
21505;SDS011;10914;48.886;9.394;2023-01-01T16:13:41;29.23;;;26.90;;
21505;SDS011;10914;48.886;9.394;2023-01-01T16:16:16;28.67;;;26.70;;
21505;SDS011;10914;48.886;9.394;2023-01-01T16:18:43;27.65;;;25.58;;
21505;SDS011;10914;48.886;9.394;2023-01-01T16:21:09;29.17;;;27.15;;